Airfield :
LOGIN :

Register | Disclaimer

   EN    FR    IT 

 










Legend :    VFR   Marginal VFR   IFR   Intensive IFR   Very Intensive IFR
Visi :
Ceiling :
>= 8 km
>= 3000ft
5 to 8 km
1000 to 3000 ft
1500m to 5 km
500 to 1000 ft
800 to 1500m
200 to 500 ft
< 800m
< 200 ft
Symbols :   Thunderstorms  Fog  Heavy snow  Heavy precipitations  Wind > 20 kt
SIGMETs :     Misc.  Thunderstorms  Icing  Turbulence  Mountain Waves  Volcanic Ashes






- Airport Elevation : 308 ft
- IATA code : POZ


EPPO - Poznan-Lawica

CURRENT METAR :
  • 231800Z VRB02KT 6000 -SHRA BKN030CB 05/04 Q0998 R10/290294

EXPIRED METARs :
  • 231730Z 13006KT 7000 -RA BKN033 05/04 Q0997 R10/290294
  • 231700Z 10004KT 3600 -RA BR SCT003 BKN026 04/04 Q0998 R10/290294
  • 231630Z 05002KT 5000 -RA BR BKN003 BKN027 04/04 Q0999 RERA R10/290294
  • 231600Z 16005KT 9000 RA BKN003 BKN014 05/04 Q0999 R10/290294
  • 231530Z 14007KT 8000 RA BKN006 BKN019 05/04 Q1000 R10/290294

TAF TAF EPPO
Valid from the 23 at 18:00 until the 24 at 18:00 UTC


231730Z 2318/2418 VRB02KT 9999 BKN020
TEMPO 2318/2320 2000 RA BR BKN003 BKN009
BECMG 2318/2320 29020G30KT
TEMPO 2320/2405 30030G40KT 3000 SHRA BKN004 BKN012CB
PROB30
TEMPO 2405/2412 29025G40KT BKN017CB
BECMG 2413/2415 25010KT
BECMG 2416/2418 19010KT



MET'MAP, your aeronautical weather chart ! - Copyright ORBIFLY December 2007 - Disclaimer

ORBIFLY MET'MAP TEAM :

Programming & Development : Alexandra Zaïnal
Concept & original design : Baudouin d'Aumeries
Assistance for programming : Marc-Olivier Méhu
Technical & hardware support : Manuel Goepfert

Contact : metmap@orbifly.com




SOURCES & CREDITS :

   NOAA